TAPA METAR and TAF | Updated Today

TAPA METAR

V.C. Bird International Airport

Observation time: 46 min. ago

TAPA 291100Z 09010KT 050V130 9999 SCT018 27/22 Q1015 NOSIG

Need help? Read our tutorial on how to read METARs or read the parsed version below.

V.C. Bird International Airport (TAPA) METAR

  • Weather conditions on Sun, 29 May 2022 11:00:00 +0000 (46 min. ago):
  • Present conditions: Dry
  • Clouds: Scattered at 549 meters
  • Visibility: Greater than 10 km
  • Wind: 90 degrees at 10 knots
  • Temperature: 27 celsius
  • Dew point: 22 celsius
  • Pressure: 1015 millibars
  • Remarks: None


Useful to know...

TAPA TAF

V.C. Bird International Airport

TAF TAPA 290500Z 2906/3006 09010KT 9999 SCT019
Observation time: 6:46 hr. ago
Need help? Read our tutorial on how to read TAFs or read the parsed version below.

Parsed version of TAF for V.C. Bird International Airport (TAPA)

  • From 29 May at 06:00 UTC, to day 30 of the month at 06:00 UTC
  • Clouds: Scattered at 579 meters
  • Visibility: Greater than 10 km
  • Wind: 90 degrees at 10